OKVWINCHESTER RGNL
METARs for airports near OKV, sorted by distance:
N 0 nm 726' KOKV 142335Z 18005KT 10SM OVC090 32/18 A2996
S 14 nm 703' KFRR 142335Z 20003KT 10SM CLR 32/18 A2997
NE 17 nm 564' KMRB 142253Z 28008KT 10SM SCT110 35/13 A2993
E 27 nm 389' KJYO 142355Z 22003KT 10SM SCT110 33/21 A2996
SW 33 nm 902' KLUA 142335Z 00000KT 10SM 33/17 A2998
E 34 nm 312' KIAD 142252Z 20008KT 10SM FEW090 FEW250 34/18 A2994
SE 38 nm 192' KHEF 142256Z 17007KT 10SM CLR 33/22 A2995
NE 39 nm 703' KHGR 142253Z 16005KT 10SM CLR 35/18 A2995
SE 39 nm 336' KHWY 142335Z 16003KT 10SM CLR 32/19 A2996
NE 39 nm 308' KFDK 142347Z 19005KT 10SM CLR 33/19 A2995
S 39 nm 315' KCJR 142335Z 00000KT CLR 33/19 A2996
NW 40 nm 775' KCBE 142345Z 26011G15KT 230V290 10SM CLR 34/15 A3002
E 45 nm 538' KGAI 142256Z 20006KT 10SM CLR A2997
SE 51 nm 73' KDAA 142255Z 15005KT 10SM CLR 35/19 A2992
S 54 nm 464' KOMH 142335Z 00000KT 10SM CLR 31/22 A2998
E 54 nm 14' KDCA 142252Z 21009KT 10SM FEW080 FEW250 36/16 A2993
SE 54 nm 10' KNYG 142256Z 5SM CLR 34/21 A2995
SE 55 nm 219' KRMN 142335Z 17004KT 10SM CLR 33/17 A2995
E 57 nm 48' KCGS 142345Z 14006KT 10SM CLR 32/23 A2995
N 59 nm 1161' KHMZ 142335Z 25003KT 10SM CLR 32/11 A2999
S 59 nm 454' KGVE 142335Z 00000KT 10SM SCT095 32/22 A2996
NE 59 nm 789' KDMW 142340Z 18004KT 10SM CLR 36/18 A2997
SW 60 nm 1165' KVBW 142335Z 29004KT 10SM SCT095 33/17 A3000
SE 61 nm 85' KEZF 142335Z 17004KT 10SM CLR 32/22 A2994
S 61 nm 640' KCHO 142253Z 16003KT 10SM SCT100 BKN110 34/18 A2997
E 62 nm 279' KADW 142255Z 13007KT 10SM CLR 32/23 A2993
SW 63 nm 1201' KSHD 142335Z 24008KT 10SM CLR 33/16 A3003
E 64 nm 150' KFME 142349Z 15003KT 10SM CLR 30/22 A2997
S 68 nm 493' KLKU 142335Z 16004KT 10SM SCT110 30/22 A2999
E 68 nm 143' KBWI 142254Z 16007KT 10SM FEW065 FEW250 32/22 A2994
N 69 nm 1503' KAOO 142253Z 28005KT 10SM OVC100 31/14 A3001
NE 75 nm 494' KTHV 142253Z VRB04KT 10SM CLR 33/21 A2995
NW 77 nm 2284' KJST 142254Z 27005KT 10SM CLR 29/14 A3006
E 81 nm 21' KMTN 142255Z 15005KT 10SM CLR 30/23 A2996
W 81 nm 1987' KEKN 142351Z 25006KT 10SM CLR 29/17 A3009
NW 85 nm 1264' KVVS 142335Z 24007KT 10SM CLR 31/15 A3001
W 87 nm 1243' KMGW 142253Z VRB04KT 10SM CLR 33/15 A3002
NE 87 nm 346' KCXY 142256Z 12011KT 10SM SCT095 33/21 A2994
NW 89 nm 1198' KLBE 142247Z 22010G16KT 10SM CLR 34/15 A2999
NE 89 nm 310' KMDT 142256Z 14009KT 10SM SCT095 32/22 A2993
S 92 nm 206' KOFP 142254Z 22005KT 10SM CLR 35/21 A2998
E 93 nm 44' KAPG 122034Z VRB05KT 7SM -RA SCT030 OVC050 26/22 A3014
N 95 nm 818' KRVL 142335Z 00000KT 10SM FEW080 29/20 A2996
SE 96 nm 38' KNHK 142252Z 14007KT 10SM CLR 32/25 A2996
SE 96 nm 135' KXSA 142335Z 00000KT 10SM CLR 32/25 A2998
W 97 nm 1223' KCKB 142253Z 28005KT 10SM CLR 33/18 A3002
E 99 nm 72' KESN 142345Z 18006KT 10SM CLR 30/23 A2996
NW 99 nm 1419' KIDI 142335Z 31005KT 10SM CLR 31/17 A3003
TAFs for airports near OKV, sorted by distance:
NE 17 nm 564' KMRB KMRB 141727Z 1418/1518 25006KT P6SM FEW250
  FM142300 21005KT P6SM FEW250
  FM150300 17004KT P6SM FEW250
  FM151000 23005KT P6SM FEW200
  FM151400 28004KT P6SM FEW200
E 34 nm 312' KIAD KIAD 142102Z 1421/1524 23009KT P6SM FEW250
  FM142300 21005KT P6SM FEW250
  FM150300 18004KT P6SM FEW250
  FM151600 26005KT P6SM FEW250
SE 51 nm 73' KDAA TAF KDAA 121200Z 1212/1318 VRB05KT 9999 VCSH SCT030 BKN060 OVC100 QNH2996INS
  BECMG 1212/1213 03006KT 9000 -SHRA FEW015 BKN030 OVC070 QNH3000INS
  BECMG 1213/1214 04007KT 8000 -SHRA VCTS SCT015CB OVC030 QNH3011INS
  TEMPO 1214/1301 VRB12G20KT 4800 TSRA BR SCT008 OVC015CB
  BECMG 1302/1303 VRB06KT 9000 -RA OVC010 QNH3010INS
  BECMG 1306/1307 VRB05KT 4800 -RA BR OVC008 QNH3011INS
  BECMG 1312/1313 16007KT 8000 -SHRA VCTS SCT009 BKN015CB OVC030 QNH3012INS TX27/1220Z TN24/1310Z
E 54 nm 14' KDCA KDCA 142102Z 1421/1524 21008G16KT P6SM VCTS SCT060CB SCT250
  FM142200 08008G16KT P6SM FEW200
  FM150500 17005KT P6SM FEW200
  FM151600 26005KT P6SM FEW200
SE 54 nm 10' KNYG TAF KNYG 1321/1421 VRB06KT 9999 SKC QNH3005INS
  FM140600 VRB06KT 9999 SCT200 QNH2995INS LAST NO
  AMDS AFT 1321 NEXT 1509 AUTOMATED SENSOR METWATCH 1321 TIL 1511 T32/1321Z T22/1411Z
S 61 nm 640' KCHO TAF
  AMD KCHO 142008Z 1420/1518 16008G16KT P6SM FEW250
  FM150000 00000KT P6SM FEW250
  FM150500 18005KT P6SM FEW250
  FM151600 26003KT P6SM FEW200
E 62 nm 279' KADW TAF
  AMD KADW 141910Z 1419/1523 27012KT 9999 VCTS SCT050CB QNH2997INS
  TEMPO 1419/1421 29012G18KT 8000 -TSRA BKN050CB
  BECMG 1420/1421 22006KT 9999 NSW SCT050 QNH2994INS
  BECMG 1500/1501 17006KT 9999 FEW070 QNH2992INS
  BECMG 1506/1507 26006KT 9999 SCT060 SCT250 QNH2986INS
  BECMG 1518/1519 23012KT 9999 -SHRA VCTS BKN040CB QNH2983INS TX38/1419Z TN23/1509Z
E 68 nm 143' KBWI TAF
  AMD KBWI 142102Z 1421/1524 18009G15KT P6SM VCTS SCT060CB SCT250
  FM142300 20004KT P6SM FEW200
  FM150500 17004KT P6SM FEW250
  FM151600 25005KT P6SM FEW200
N 69 nm 1503' KAOO TAF
  AMD KAOO 142127Z 1421/1518 26005KT P6SM SCT080
  FM150400 00000KT P6SM BKN090
  FM151400 25008KT P6SM SCT050 BKN250
NW 77 nm 2284' KJST KJST 142127Z 1421/1518 26009G18KT P6SM SCT060
  FM150100 27005KT P6SM VCSH SCT040 BKN100
  FM150700 23006KT P6SM OVC100
E 81 nm 21' KMTN KMTN 142001Z 1420/1518 15012G20KT P6SM FEW250
  FM150000 20005KT P6SM FEW250
  FM150400 17005KT P6SM FEW250
  FM151600 21005KT P6SM FEW200
W 81 nm 1987' KEKN TAF
  AMD KEKN 141918Z 1419/1518 26008G14KT P6SM SCT070
  FM150100 00000KT P6SM SKC
  FM150900 00000KT 3SM BR SCT002
  FM151200 23003KT P6SM SCT120
W 87 nm 1243' KMGW KMGW 141736Z 1418/1518 24006KT P6SM SCT060
  FM150300 20003KT P6SM BKN100
  FM151600 22009G18KT P6SM SCT100
NW 89 nm 1198' KLBE KLBE 142047Z 1421/1518 24013KT P6SM SCT050
  FM150300 20003KT P6SM BKN200
  FM151600 23013G22KT P6SM BKN050
NE 89 nm 310' KMDT KMDT 142127Z 1421/1518 27005KT P6SM SCT040
  FM150000 15003KT 6SM BR SCT120
  FM150800 VRB03KT 4SM BR BKN250
  FM151300 28007KT P6SM SCT250
SE 96 nm 38' KNHK TAF KNHK 1423/1523 17010KT 9999 VCTS FEW030CB SCT060 BKN100 QNH2993INS
  BECMG 1504/1506 20008KT 9999 NSW FEW050 SCT070 BKN090 QNH2989INS
  BECMG 1510/1512 19007KT 9999 FEW120 QNH2987INS AUTOMATED SENSOR METWATCH 1423 TIL 1508 TX34/1521Z TN27/1509Z FN00277
W 97 nm 1223' KCKB TAF KCKB 141720Z 1418/1518 26008KT P6SM FEW040
  FM150100 22002KT P6SM VCTS FEW060CB
  FM150900 20006KT P6SM SKC
  FM151600 24008G14KT P6SM FEW120

Shortcut to this page: http://wxbay.com.

Data may contain errors.